Beaufort, SC

9:39 AM EDT on May 23, 2015 (GMT -0400)
KSCBEAUF5 | | Change Station
CLOSE
Current Station
Personal Weather Station
Location: Beaufort, SC
Elevation: 13 ft
Nearby Weather Stations

Elev 13 ft 32.42 °N, 80.69 °W | Updated 3 minutes ago

Clear
Clear
73.9 °F
Feels Like 76 °F
N
7.0
Wind Variable Wind from ENE
Gusts 11.0 mph

Today
High -- | Low -- °F
--% Chance of Precip.
Yesterday
High -- | Low -- °F
Precip. -- in
6:19 AM 8:19 PM
Waxing Crescent, 30% visible
Pressure 30.35 in
Visibility 7.0 miles
Clouds Clear
Heat Index 76 °F
Dew Point 62 °F
Humidity 67%
Rainfall 0.00 in
Snow Depth Not available.
UV 2.9 out of 12
Pollen 6.90 out of 12
Air Quality Not available.
Flu Activity Local Activity
METAR KARW 231335Z AUTO 04010G14KT 7SM CLR 22/16 A3035 RMK AO2

More Conditions Fewer Conditions

Pressure 30.35 in
Visibility 7.0 miles
Clouds Clear
Heat Index 76 °F
Dew Point 62 °F
Humidity 67%
Rainfall 0.00 in
Snow Depth Not available.
UV 2.9 out of 12
Pollen 6.90 out of 12
Air Quality Not available.
Flu Activity Local Activity
METAR KARW 231335Z AUTO 04010G14KT 7SM CLR 22/16 A3035 RMK AO2

More Conditions Fewer Conditions

10-Day Weather Forecast

Almanac

Astronomy

May. 23, 2015 Rise Set
Actual Time
Civil Twilight
Nautical Twilight
Astronomical Twilight
Moon
Length of Visible Light
Length of Day
Tomorrow will be .
, % of the Moon is Illuminated

Today's Extremes

State Highs State Lows

Community

WunderPhotos

Upload Photos

1,823,462 photos uploaded!

WunderBlogs® & News

Nearby

Air Quality

  Air Quality AQ Index Pollutant
Not available.

Snow Depth

Station Depth Elevation

Earthquake Activity

City Distance Mag. Time & Date
Minimum magnitude displayed is 2.5.

Coastal Water Temperatures

Place Temperature

Stations

Nearby Weather Stations

Station Location Temp. Windchill Dew Point Humidity Wind Precip. Elev Updated Type